sensor_id;sensor_type;location;lat;lon;timestamp;pressure;altitude;pressure_sealevel;temperature;humidity
3444;BME280;1736;52.068;6.968;2022-12-07T00:02:22;101151.09;;;3.96;100.00
3444;BME280;1736;52.068;6.968;2022-12-07T00:04:49;101148.00;;;3.88;100.00
3444;BME280;1736;52.068;6.968;2022-12-07T00:07:15;101142.13;;;3.83;100.00
3444;BME280;1736;52.068;6.968;2022-12-07T00:09:42;101149.84;;;3.86;100.00
3444;BME280;1736;52.068;6.968;2022-12-07T00:12:08;101147.09;;;3.89;100.00
3444;BME280;1736;52.068;6.968;2022-12-07T00:14:35;101147.16;;;3.87;100.00
3444;BME280;1736;52.068;6.968;2022-12-07T00:17:01;101147.22;;;3.86;100.00
3444;BME280;1736;52.068;6.968;2022-12-07T00:19:29;101140.44;;;3.82;100.00
3444;BME280;1736;52.068;6.968;2022-12-07T00:21:56;101137.31;;;3.74;100.00
3444;BME280;1736;52.068;6.968;2022-12-07T00:24:22;101134.22;;;3.66;100.00
3444;BME280;1736;52.068;6.968;2022-12-07T00:26:49;101136.50;;;3.55;100.00
3444;BME280;1736;52.068;6.968;2022-12-07T00:29:17;101144.16;;;3.59;100.00
3444;BME280;1736;52.068;6.968;2022-12-07T00:31:44;101140.19;;;3.51;100.00
3444;BME280;1736;52.068;6.968;2022-12-07T00:34:13;101136.19;;;3.44;100.00
3444;BME280;1736;52.068;6.968;2022-12-07T00:36:41;101127.59;;;3.40;100.00
3444;BME280;1736;52.068;6.968;2022-12-07T00:39:07;101126.03;;;3.36;100.00
3444;BME280;1736;52.068;6.968;2022-12-07T00:41:34;101122.97;;;3.27;100.00
3444;BME280;1736;52.068;6.968;2022-12-07T00:44:01;101127.03;;;3.34;100.00
3444;BME280;1736;52.068;6.968;2022-12-07T00:46:28;101123.16;;;3.24;100.00
3444;BME280;1736;52.068;6.968;2022-12-07T00:48:56;101111.88;;;3.22;100.00
3444;BME280;1736;52.068;6.968;2022-12-07T00:51:24;101117.75;;;3.08;100.00
3444;BME280;1736;52.068;6.968;2022-12-07T00:53:52;101115.00;;;3.11;100.00
3444;BME280;1736;52.068;6.968;2022-12-07T00:56:21;101120.53;;;3.05;100.00
3444;BME280;1736;52.068;6.968;2022-12-07T00:58:52;101116.13;;;3.06;100.00
3444;BME280;1736;52.068;6.968;2022-12-07T01:01:19;101117.75;;;3.08;100.00
3444;BME280;1736;52.068;6.968;2022-12-07T01:03:46;101124.91;;;3.05;100.00
3444;BME280;1736;52.068;6.968;2022-12-07T01:06:14;101118.09;;;3.01;100.00
3444;BME280;1736;52.068;6.968;2022-12-07T01:08:41;101117.00;;;3.06;100.00
3444;BME280;1736;52.068;6.968;2022-12-07T01:11:12;101120.31;;;3.10;100.00
3444;BME280;1736;52.068;6.968;2022-12-07T01:13:38;101107.63;;;3.01;100.00
3444;BME280;1736;52.068;6.968;2022-12-07T01:16:06;101106.06;;;2.97;100.00
3444;BME280;1736;52.068;6.968;2022-12-07T01:18:35;101116.97;;;2.88;100.00
3444;BME280;1736;52.068;6.968;2022-12-07T01:21:03;101108.19;;;2.89;100.00
3444;BME280;1736;52.068;6.968;2022-12-07T01:23:30;101111.09;;;3.01;100.00
3444;BME280;1736;52.068;6.968;2022-12-07T01:25:57;101116.19;;;2.86;100.00
3444;BME280;1736;52.068;6.968;2022-12-07T01:28:25;101115.53;;;2.81;100.00
3444;BME280;1736;52.068;6.968;2022-12-07T01:30:59;101112.22;;;2.77;100.00
3444;BME280;1736;52.068;6.968;2022-12-07T01:33:27;101113.22;;;2.75;100.00
3444;BME280;1736;52.068;6.968;2022-12-07T01:35:54;101117.66;;;2.73;100.00
3444;BME280;1736;52.068;6.968;2022-12-07T01:38:21;101128.44;;;2.67;100.00
3444;BME280;1736;52.068;6.968;2022-12-07T01:40:54;101123.03;;;2.70;100.00
3444;BME280;1736;52.068;6.968;2022-12-07T01:43:21;101128.25;;;2.70;100.00
3444;BME280;1736;52.068;6.968;2022-12-07T01:45:50;101124.00;;;2.67;100.00
3444;BME280;1736;52.068;6.968;2022-12-07T01:48:19;101126.94;;;2.61;100.00
3444;BME280;1736;52.068;6.968;2022-12-07T01:50:48;101124.19;;;2.44;100.00
3444;BME280;1736;52.068;6.968;2022-12-07T01:53:17;101123.53;;;2.39;100.00
3444;BME280;1736;52.068;6.968;2022-12-07T01:55:46;101117.03;;;2.48;100.00
3444;BME280;1736;52.068;6.968;2022-12-07T01:58:14;101119.91;;;2.42;100.00
3444;BME280;1736;52.068;6.968;2022-12-07T02:00:41;101123.75;;;2.35;100.00
3444;BME280;1736;52.068;6.968;2022-12-07T02:03:13;101120.59;;;2.27;100.00
3444;BME280;1736;52.068;6.968;2022-12-07T02:05:43;101118.44;;;2.36;100.00
3444;BME280;1736;52.068;6.968;2022-12-07T02:08:11;101112.28;;;2.37;100.00
3444;BME280;1736;52.068;6.968;2022-12-07T02:10:38;101117.13;;;2.26;100.00
3444;BME280;1736;52.068;6.968;2022-12-07T02:13:08;101111.00;;;2.26;100.00
3444;BME280;1736;52.068;6.968;2022-12-07T02:15:45;101111.56;;;2.14;100.00
3444;BME280;1736;52.068;6.968;2022-12-07T02:18:22;101116.13;;;2.09;100.00
3444;BME280;1736;52.068;6.968;2022-12-07T02:20:56;101109.00;;;2.12;100.00
3444;BME280;1736;52.068;6.968;2022-12-07T02:23:40;101107.50;;;2.07;100.00
3444;BME280;1736;52.068;6.968;2022-12-07T02:29:14;101112.75;;;2.07;100.00
3444;BME280;1736;52.068;6.968;2022-12-07T02:31:46;101109.13;;;2.09;100.00
3444;BME280;1736;52.068;6.968;2022-12-07T02:34:20;101113.44;;;2.10;100.00
3444;BME280;1736;52.068;6.968;2022-12-07T02:36:52;101104.66;;;2.11;100.00
3444;BME280;1736;52.068;6.968;2022-12-07T02:39:25;101105.19;;;2.19;100.00
3444;BME280;1736;52.068;6.968;2022-12-07T02:41:56;101115.81;;;2.16;100.00
3444;BME280;1736;52.068;6.968;2022-12-07T02:44:28;101111.22;;;2.21;100.00
3444;BME280;1736;52.068;6.968;2022-12-07T02:47:01;101118.09;;;2.24;100.00
3444;BME280;1736;52.068;6.968;2022-12-07T02:49:30;101114.72;;;2.22;100.00
3444;BME280;1736;52.068;6.968;2022-12-07T02:51:56;101118.63;;;2.12;100.00
3444;BME280;1736;52.068;6.968;2022-12-07T02:54:23;101118.91;;;2.06;100.00
3444;BME280;1736;52.068;6.968;2022-12-07T02:56:53;101119.25;;;1.97;100.00
3444;BME280;1736;52.068;6.968;2022-12-07T02:59:32;101109.97;;;1.90;100.00
3444;BME280;1736;52.068;6.968;2022-12-07T03:02:10;101112.84;;;2.04;100.00
3444;BME280;1736;52.068;6.968;2022-12-07T03:04:51;101111.16;;;2.03;100.00
3444;BME280;1736;52.068;6.968;2022-12-07T03:07:26;101113.19;;;1.96;100.00
3444;BME280;1736;52.068;6.968;2022-12-07T03:10:00;101115.22;;;1.90;100.00
3444;BME280;1736;52.068;6.968;2022-12-07T03:12:32;101117.44;;;1.99;100.00
3444;BME280;1736;52.068;6.968;2022-12-07T03:15:07;101111.56;;;1.94;100.00
3444;BME280;1736;52.068;6.968;2022-12-07T03:17:38;101112.91;;;2.02;100.00
3444;BME280;1736;52.068;6.968;2022-12-07T03:20:09;101108.03;;;2.15;100.00
3444;BME280;1736;52.068;6.968;2022-12-07T03:22:38;101107.03;;;2.17;100.00
3444;BME280;1736;52.068;6.968;2022-12-07T03:25:09;101113.84;;;2.21;100.00
3444;BME280;1736;52.068;6.968;2022-12-07T03:27:39;101103.16;;;2.26;100.00
3444;BME280;1736;52.068;6.968;2022-12-07T03:30:10;101101.06;;;2.34;100.00
3444;BME280;1736;52.068;6.968;2022-12-07T03:32:41;101103.16;;;2.26;100.00
3444;BME280;1736;52.068;6.968;2022-12-07T03:35:14;101098.84;;;2.25;100.00
3444;BME280;1736;52.068;6.968;2022-12-07T03:37:46;101103.44;;;2.20;100.00
3444;BME280;1736;52.068;6.968;2022-12-07T03:40:17;101096.56;;;2.17;100.00
3444;BME280;1736;52.068;6.968;2022-12-07T03:42:47;101090.63;;;2.14;100.00
3444;BME280;1736;52.068;6.968;2022-12-07T03:45:15;101090.63;;;2.14;100.00
3444;BME280;1736;52.068;6.968;2022-12-07T03:47:46;101089.13;;;2.08;100.00
3444;BME280;1736;52.068;6.968;2022-12-07T03:50:21;101090.81;;;2.09;100.00
3444;BME280;1736;52.068;6.968;2022-12-07T03:52:53;101086.69;;;2.04;100.00
3444;BME280;1736;52.068;6.968;2022-12-07T03:55:25;101087.59;;;2.03;100.00
3444;BME280;1736;52.068;6.968;2022-12-07T03:57:55;101086.22;;;2.14;100.00
3444;BME280;1736;52.068;6.968;2022-12-07T04:00:25;101085.63;;;2.28;100.00
3444;BME280;1736;52.068;6.968;2022-12-07T04:02:52;101084.84;;;2.26;100.00
3444;BME280;1736;52.068;6.968;2022-12-07T04:05:19;101093.22;;;2.34;100.00
3444;BME280;1736;52.068;6.968;2022-12-07T04:07:45;101094.94;;;2.35;100.00
3444;BME280;1736;52.068;6.968;2022-12-07T04:10:12;101092.63;;;2.27;100.00
3444;BME280;1736;52.068;6.968;2022-12-07T04:12:39;101091.00;;;2.25;100.00
3444;BME280;1736;52.068;6.968;2022-12-07T04:15:06;101087.59;;;2.23;100.00
3444;BME280;1736;52.068;6.968;2022-12-07T04:17:34;101082.38;;;2.23;100.00
3444;BME280;1736;52.068;6.968;2022-12-07T04:20:02;101083.41;;;2.19;100.00
3444;BME280;1736;52.068;6.968;2022-12-07T04:22:29;101094.81;;;2.18;100.00
3444;BME280;1736;52.068;6.968;2022-12-07T04:24:55;101084.75;;;2.27;100.00
3444;BME280;1736;52.068;6.968;2022-12-07T04:27:22;101085.13;;;2.20;100.00
3444;BME280;1736;52.068;6.968;2022-12-07T04:29:49;101098.78;;;2.26;100.00
3444;BME280;1736;52.068;6.968;2022-12-07T04:32:15;101086.69;;;2.24;100.00
3444;BME280;1736;52.068;6.968;2022-12-07T04:34:43;101092.63;;;2.27;100.00
3444;BME280;1736;52.068;6.968;2022-12-07T04:37:09;101092.84;;;2.23;100.00
3444;BME280;1736;52.068;6.968;2022-12-07T04:39:36;101093.78;;;2.22;100.00
3444;BME280;1736;52.068;6.968;2022-12-07T04:42:03;101095.31;;;2.26;100.00
3444;BME280;1736;52.068;6.968;2022-12-07T04:44:29;101094.41;;;2.27;100.00
3444;BME280;1736;52.068;6.968;2022-12-07T04:46:57;101099.31;;;2.34;100.00
3444;BME280;1736;52.068;6.968;2022-12-07T04:49:24;101093.09;;;2.37;100.00
3444;BME280;1736;52.068;6.968;2022-12-07T04:51:52;101092.84;;;2.43;100.00
3444;BME280;1736;52.068;6.968;2022-12-07T04:54:19;101088.28;;;2.46;100.00
3444;BME280;1736;52.068;6.968;2022-12-07T04:56:46;101082.34;;;2.43;100.00
3444;BME280;1736;52.068;6.968;2022-12-07T04:59:13;101081.94;;;2.52;100.00
3444;BME280;1736;52.068;6.968;2022-12-07T05:01:40;101084.56;;;2.52;100.00
3444;BME280;1736;52.068;6.968;2022-12-07T05:04:07;101072.94;;;2.39;100.00
3444;BME280;1736;52.068;6.968;2022-12-07T05:06:34;101076.03;;;2.28;100.00
3444;BME280;1736;52.068;6.968;2022-12-07T05:09:02;101080.09;;;2.34;100.00
3444;BME280;1736;52.068;6.968;2022-12-07T05:11:29;101077.66;;;2.31;100.00
3444;BME280;1736;52.068;6.968;2022-12-07T05:14:06;101071.38;;;2.15;100.00
3444;BME280;1736;52.068;6.968;2022-12-07T05:16:33;101077.78;;;2.08;100.00
3444;BME280;1736;52.068;6.968;2022-12-07T05:18:59;101079.69;;;2.04;100.00
3444;BME280;1736;52.068;6.968;2022-12-07T05:21:26;101078.56;;;1.90;100.00
3444;BME280;1736;52.068;6.968;2022-12-07T05:23:52;101086.03;;;1.99;100.00
3444;BME280;1736;52.068;6.968;2022-12-07T05:26:20;101095.31;;;1.86;100.00
3444;BME280;1736;52.068;6.968;2022-12-07T05:28:50;101094.72;;;1.79;100.00
3444;BME280;1736;52.068;6.968;2022-12-07T05:31:16;101083.63;;;1.73;100.00
3444;BME280;1736;52.068;6.968;2022-12-07T05:33:43;101097.75;;;1.69;100.00
3444;BME280;1736;52.068;6.968;2022-12-07T05:36:09;101092.66;;;1.66;100.00
3444;BME280;1736;52.068;6.968;2022-12-07T05:38:36;101083.78;;;1.70;100.00
3444;BME280;1736;52.068;6.968;2022-12-07T05:41:03;101084.56;;;1.72;100.00
3444;BME280;1736;52.068;6.968;2022-12-07T05:43:31;101082.75;;;1.74;100.00
3444;BME280;1736;52.068;6.968;2022-12-07T05:45:58;101083.84;;;1.68;100.00
3444;BME280;1736;52.068;6.968;2022-12-07T05:48:26;101078.56;;;1.70;100.00
3444;BME280;1736;52.068;6.968;2022-12-07T05:50:52;101077.44;;;1.75;100.00
3444;BME280;1736;52.068;6.968;2022-12-07T05:53:19;101073.44;;;1.67;100.00
3444;BME280;1736;52.068;6.968;2022-12-07T05:55:46;101069.25;;;1.63;100.00
3444;BME280;1736;52.068;6.968;2022-12-07T05:58:13;101068.53;;;1.59;100.00
3444;BME280;1736;52.068;6.968;2022-12-07T06:00:58;101066.16;;;1.53;100.00
3444;BME280;1736;52.068;6.968;2022-12-07T06:03:25;101062.06;;;1.46;100.00
3444;BME280;1736;52.068;6.968;2022-12-07T06:05:52;101062.00;;;1.48;100.00
3444;BME280;1736;52.068;6.968;2022-12-07T06:08:19;101067.50;;;1.42;100.00
3444;BME280;1736;52.068;6.968;2022-12-07T06:10:46;101070.53;;;1.53;100.00
3444;BME280;1736;52.068;6.968;2022-12-07T06:13:33;101064.34;;;1.34;100.00
3444;BME280;1736;52.068;6.968;2022-12-07T06:16:00;101070.56;;;1.31;100.00
3444;BME280;1736;52.068;6.968;2022-12-07T06:18:26;101068.09;;;1.27;100.00
3444;BME280;1736;52.068;6.968;2022-12-07T06:20:53;101066.59;;;1.21;100.00
3444;BME280;1736;52.068;6.968;2022-12-07T06:23:19;101078.00;;;1.19;100.00
3444;BME280;1736;52.068;6.968;2022-12-07T06:25:46;101077.09;;;1.20;100.00
3444;BME280;1736;52.068;6.968;2022-12-07T06:28:12;101084.06;;;1.21;100.00
3444;BME280;1736;52.068;6.968;2022-12-07T06:30:38;101078.28;;;1.13;100.00
3444;BME280;1736;52.068;6.968;2022-12-07T06:33:06;101086.09;;;1.13;100.00
3444;BME280;1736;52.068;6.968;2022-12-07T06:35:33;101074.69;;;1.37;100.00
3444;BME280;1736;52.068;6.968;2022-12-07T06:37:59;101072.84;;;1.39;100.00
3444;BME280;1736;52.068;6.968;2022-12-07T06:40:26;101069.56;;;1.34;100.00
3444;BME280;1736;52.068;6.968;2022-12-07T06:42:52;101067.88;;;1.33;100.00
3444;BME280;1736;52.068;6.968;2022-12-07T06:45:19;101069.09;;;1.24;100.00
3444;BME280;1736;52.068;6.968;2022-12-07T06:47:45;101074.38;;;1.23;100.00
3444;BME280;1736;52.068;6.968;2022-12-07T06:50:13;101086.88;;;1.15;100.00
3444;BME280;1736;52.068;6.968;2022-12-07T06:52:40;101092.56;;;1.26;100.00
3444;BME280;1736;52.068;6.968;2022-12-07T06:55:07;101087.75;;;1.37;100.00
3444;BME280;1736;52.068;6.968;2022-12-07T06:57:33;101093.63;;;1.20;100.00
3444;BME280;1736;52.068;6.968;2022-12-07T07:00:00;101095.75;;;1.11;100.00
3444;BME280;1736;52.068;6.968;2022-12-07T07:02:26;101094.13;;;1.08;100.00
3444;BME280;1736;52.068;6.968;2022-12-07T07:04:53;101099.13;;;1.14;100.00
3444;BME280;1736;52.068;6.968;2022-12-07T07:07:20;101095.09;;;1.06;100.00
3444;BME280;1736;52.068;6.968;2022-12-07T07:09:47;101099.44;;;1.05;100.00
3444;BME280;1736;52.068;6.968;2022-12-07T07:12:13;101102.00;;;1.07;100.00
3444;BME280;1736;52.068;6.968;2022-12-07T07:14:40;101100.22;;;1.09;100.00
3444;BME280;1736;52.068;6.968;2022-12-07T07:17:07;101096.56;;;1.13;100.00
3444;BME280;1736;52.068;6.968;2022-12-07T07:19:33;101095.75;;;1.11;100.00
3444;BME280;1736;52.068;6.968;2022-12-07T07:22:00;101098.63;;;1.05;100.00
3444;BME280;1736;52.068;6.968;2022-12-07T07:24:28;101096.00;;;1.05;100.00
3444;BME280;1736;52.068;6.968;2022-12-07T07:26:54;101090.94;;;1.00;100.00
3444;BME280;1736;52.068;6.968;2022-12-07T07:29:20;101088.28;;;1.02;100.00
3444;BME280;1736;52.068;6.968;2022-12-07T07:31:47;101100.47;;;1.01;100.00
3444;BME280;1736;52.068;6.968;2022-12-07T07:34:13;101101.41;;;1.00;100.00
3444;BME280;1736;52.068;6.968;2022-12-07T07:36:40;101099.84;;;0.95;100.00
3444;BME280;1736;52.068;6.968;2022-12-07T07:39:07;101105.13;;;0.93;100.00
3444;BME280;1736;52.068;6.968;2022-12-07T07:41:35;101102.25;;;1.01;100.00
3444;BME280;1736;52.068;6.968;2022-12-07T07:44:01;101111.84;;;1.00;100.00
3444;BME280;1736;52.068;6.968;2022-12-07T07:46:28;101110.81;;;1.04;100.00
3444;BME280;1736;52.068;6.968;2022-12-07T07:48:54;101113.03;;;1.15;100.00
3444;BME280;1736;52.068;6.968;2022-12-07T07:51:21;101117.22;;;1.19;100.00
3444;BME280;1736;52.068;6.968;2022-12-07T07:53:47;101101.53;;;1.19;100.00
3444;BME280;1736;52.068;6.968;2022-12-07T07:56:14;101119.06;;;1.38;100.00
3444;BME280;1736;52.068;6.968;2022-12-07T07:58:41;101114.56;;;1.42;100.00
3444;BME280;1736;52.068;6.968;2022-12-07T08:01:09;101114.25;;;1.49;100.00
3444;BME280;1736;52.068;6.968;2022-12-07T08:03:35;101125.22;;;1.59;100.00
3444;BME280;1736;52.068;6.968;2022-12-07T08:06:02;101116.75;;;1.74;100.00
3444;BME280;1736;52.068;6.968;2022-12-07T08:08:28;101115.56;;;1.81;100.00
3444;BME280;1736;52.068;6.968;2022-12-07T08:10:55;101115.38;;;1.85;100.00
3444;BME280;1736;52.068;6.968;2022-12-07T08:13:21;101109.59;;;1.99;100.00
3444;BME280;1736;52.068;6.968;2022-12-07T08:15:49;101112.84;;;2.04;100.00
3444;BME280;1736;52.068;6.968;2022-12-07T08:18:16;101110.81;;;2.10;100.00
3444;BME280;1736;52.068;6.968;2022-12-07T08:20:42;101114.97;;;2.16;100.00
3444;BME280;1736;52.068;6.968;2022-12-07T08:23:10;101107.97;;;2.16;100.00
3444;BME280;1736;52.068;6.968;2022-12-07T08:25:37;101107.63;;;2.24;100.00
3444;BME280;1736;52.068;6.968;2022-12-07T08:28:04;101106.59;;;2.28;100.00
3444;BME280;1736;52.068;6.968;2022-12-07T08:30:31;101110.06;;;2.28;100.00
3444;BME280;1736;52.068;6.968;2022-12-07T08:32:59;101110.50;;;2.38;100.00
3444;BME280;1736;52.068;6.968;2022-12-07T08:35:25;101108.25;;;2.49;100.00
3444;BME280;1736;52.068;6.968;2022-12-07T08:37:52;101108.91;;;2.54;100.00
3444;BME280;1736;52.068;6.968;2022-12-07T08:40:19;101107.84;;;2.58;100.00
3444;BME280;1736;52.068;6.968;2022-12-07T08:42:48;101114.53;;;2.65;100.00
3444;BME280;1736;52.068;6.968;2022-12-07T08:45:16;101118.06;;;2.64;100.00
3444;BME280;1736;52.068;6.968;2022-12-07T08:47:47;101113.09;;;2.58;100.00
3444;BME280;1736;52.068;6.968;2022-12-07T08:50:17;101113.94;;;2.58;100.00
3444;BME280;1736;52.068;6.968;2022-12-07T08:52:43;101113.31;;;2.53;100.00
3444;BME280;1736;52.068;6.968;2022-12-07T08:55:10;101117.75;;;2.51;100.00
3444;BME280;1736;52.068;6.968;2022-12-07T08:57:38;101122.69;;;2.39;100.00
3444;BME280;1736;52.068;6.968;2022-12-07T09:00:06;101114.31;;;2.31;100.00
3444;BME280;1736;52.068;6.968;2022-12-07T09:02:33;101120.59;;;2.27;100.00
3444;BME280;1736;52.068;6.968;2022-12-07T09:04:59;101125.78;;;2.28;100.00
3444;BME280;1736;52.068;6.968;2022-12-07T09:07:27;101124.91;;;2.28;100.00
3444;BME280;1736;52.068;6.968;2022-12-07T09:09:54;101122.34;;;2.26;100.00
3444;BME280;1736;52.068;6.968;2022-12-07T09:12:21;101125.44;;;2.36;100.00
3444;BME280;1736;52.068;6.968;2022-12-07T09:14:47;101125.66;;;2.50;100.00
3444;BME280;1736;52.068;6.968;2022-12-07T09:17:14;101123.81;;;2.72;100.00
3444;BME280;1736;52.068;6.968;2022-12-07T09:19:40;101122.06;;;2.91;100.00
3444;BME280;1736;52.068;6.968;2022-12-07T09:22:08;101124.22;;;3.01;100.00
3444;BME280;1736;52.068;6.968;2022-12-07T09:24:36;101122.44;;;3.20;100.00
3444;BME280;1736;52.068;6.968;2022-12-07T09:27:02;101117.97;;;3.22;100.00
3444;BME280;1736;52.068;6.968;2022-12-07T09:29:29;101123.06;;;3.25;100.00
3444;BME280;1736;52.068;6.968;2022-12-07T09:31:55;101115.56;;;3.18;100.00
3444;BME280;1736;52.068;6.968;2022-12-07T09:34:22;101111.75;;;3.06;100.00
3444;BME280;1736;52.068;6.968;2022-12-07T09:36:49;101108.63;;;2.98;100.00
3444;BME280;1736;52.068;6.968;2022-12-07T09:39:15;101115.69;;;2.96;100.00
3444;BME280;1736;52.068;6.968;2022-12-07T09:41:44;101108.00;;;2.93;100.00
3444;BME280;1736;52.068;6.968;2022-12-07T09:44:12;101118.38;;;2.95;100.00
3444;BME280;1736;52.068;6.968;2022-12-07T09:46:41;101128.16;;;3.10;100.00
3444;BME280;1736;52.068;6.968;2022-12-07T09:49:12;101126.03;;;2.99;100.00
3444;BME280;1736;52.068;6.968;2022-12-07T09:51:39;101118.69;;;3.07;100.00
3444;BME280;1736;52.068;6.968;2022-12-07T09:54:06;101124.78;;;3.08;100.00
3444;BME280;1736;52.068;6.968;2022-12-07T09:56:32;101114.94;;;3.13;100.00
3444;BME280;1736;52.068;6.968;2022-12-07T09:59:01;101119.38;;;3.11;100.00
3444;BME280;1736;52.068;6.968;2022-12-07T10:01:30;101116.84;;;3.09;100.00
3444;BME280;1736;52.068;6.968;2022-12-07T10:04:05;101109.31;;;3.20;100.00
3444;BME280;1736;52.068;6.968;2022-12-07T10:06:33;101110.03;;;3.24;100.00
3444;BME280;1736;52.068;6.968;2022-12-07T10:08:59;101114.84;;;3.33;100.00
3444;BME280;1736;52.068;6.968;2022-12-07T10:11:26;101113.53;;;3.41;100.00
3444;BME280;1736;52.068;6.968;2022-12-07T10:13:52;101105.59;;;3.43;100.00
3444;BME280;1736;52.068;6.968;2022-12-07T10:16:41;101099.47;;;3.44;100.00
3444;BME280;1736;52.068;6.968;2022-12-07T10:19:20;101105.59;;;3.43;100.00
3444;BME280;1736;52.068;6.968;2022-12-07T10:22:01;101103.31;;;3.54;100.00
3444;BME280;1736;52.068;6.968;2022-12-07T10:24:28;101101.09;;;3.46;100.00
3444;BME280;1736;52.068;6.968;2022-12-07T10:26:55;101100.63;;;3.55;100.00
3444;BME280;1736;52.068;6.968;2022-12-07T10:29:23;101102.72;;;3.66;100.00
3444;BME280;1736;52.068;6.968;2022-12-07T10:31:54;101100.97;;;3.66;100.00
3444;BME280;1736;52.068;6.968;2022-12-07T10:34:23;101091.78;;;3.92;100.00
3444;BME280;1736;52.068;6.968;2022-12-07T10:36:52;101086.94;;;3.84;100.00
3444;BME280;1736;52.068;6.968;2022-12-07T10:39:21;101079.28;;;3.80;100.00
3444;BME280;1736;52.068;6.968;2022-12-07T10:41:53;101080.53;;;3.73;100.00
3444;BME280;1736;52.068;6.968;2022-12-07T10:44:21;101076.44;;;3.84;100.00
3444;BME280;1736;52.068;6.968;2022-12-07T10:50:14;101075.75;;;3.81;100.00
3444;BME280;1736;52.068;6.968;2022-12-07T10:53:03;101079.06;;;3.84;100.00
3444;BME280;1736;52.068;6.968;2022-12-07T10:55:40;101079.66;;;3.89;100.00
3444;BME280;1736;52.068;6.968;2022-12-07T10:58:26;101070.22;;;4.02;100.00
3444;BME280;1736;52.068;6.968;2022-12-07T11:01:00;101067.84;;;4.15;100.00
3444;BME280;1736;52.068;6.968;2022-12-07T11:03:37;101064.75;;;4.24;100.00
3444;BME280;1736;52.068;6.968;2022-12-07T11:06:23;101055.91;;;4.25;100.00
3444;BME280;1736;52.068;6.968;2022-12-07T11:09:03;101053.53;;;4.37;100.00
3444;BME280;1736;52.068;6.968;2022-12-07T11:11:35;101049.50;;;4.30;100.00
3444;BME280;1736;52.068;6.968;2022-12-07T11:14:10;101054.94;;;4.27;100.00
3444;BME280;1736;52.068;6.968;2022-12-07T11:16:51;101044.44;;;4.27;100.00
3444;BME280;1736;52.068;6.968;2022-12-07T11:19:32;101040.38;;;4.37;100.00
3444;BME280;1736;52.068;6.968;2022-12-07T11:22:06;101038.16;;;4.30;100.00
3444;BME280;1736;52.068;6.968;2022-12-07T11:24:41;101038.16;;;4.30;100.00
3444;BME280;1736;52.068;6.968;2022-12-07T11:27:20;101042.72;;;4.26;100.00
3444;BME280;1736;52.068;6.968;2022-12-07T11:29:56;101041.19;;;4.22;100.00
3444;BME280;1736;52.068;6.968;2022-12-07T11:32:39;101036.00;;;4.21;100.00
3444;BME280;1736;52.068;6.968;2022-12-07T11:35:13;101031.94;;;4.15;100.00
3444;BME280;1736;52.068;6.968;2022-12-07T11:37:46;101035.88;;;4.07;100.00
3444;BME280;1736;52.068;6.968;2022-12-07T11:40:18;101036.03;;;4.04;100.00
3444;BME280;1736;52.068;6.968;2022-12-07T11:42:50;101031.22;;;4.12;100.00
3444;BME280;1736;52.068;6.968;2022-12-07T11:45:23;101024.88;;;4.16;100.00
3444;BME280;1736;52.068;6.968;2022-12-07T11:47:54;101021.88;;;4.23;100.00
3444;BME280;1736;52.068;6.968;2022-12-07T11:50:26;101021.75;;;4.42;100.00
3444;BME280;1736;52.068;6.968;2022-12-07T11:52:57;101018.91;;;4.62;100.00
3444;BME280;1736;52.068;6.968;2022-12-07T11:55:29;101017.41;;;4.73;100.00
3444;BME280;1736;52.068;6.968;2022-12-07T11:58:02;101014.19;;;4.84;100.00
3444;BME280;1736;52.068;6.968;2022-12-07T12:00:29;101019.34;;;5.01;100.00
3444;BME280;1736;52.068;6.968;2022-12-07T12:03:01;101005.34;;;5.16;100.00
3444;BME280;1736;52.068;6.968;2022-12-07T12:05:28;101003.13;;;5.24;100.00
3444;BME280;1736;52.068;6.968;2022-12-07T12:08:02;101000.75;;;5.35;100.00
3444;BME280;1736;52.068;6.968;2022-12-07T12:10:39;100994.72;;;5.33;100.00
3444;BME280;1736;52.068;6.968;2022-12-07T12:13:45;101006.19;;;5.32;99.93
3444;BME280;1736;52.068;6.968;2022-12-07T12:16:32;100999.41;;;5.28;99.81
3444;BME280;1736;52.068;6.968;2022-12-07T12:19:19;100995.81;;;5.29;99.80
3444;BME280;1736;52.068;6.968;2022-12-07T12:21:54;100998.91;;;5.21;100.00
3444;BME280;1736;52.068;6.968;2022-12-07T12:24:25;101009.91;;;5.28;99.79
3444;BME280;1736;52.068;6.968;2022-12-07T12:30:26;100996.19;;;5.23;99.99
3444;BME280;1736;52.068;6.968;2022-12-07T12:33:02;100994.78;;;5.31;99.85
3444;BME280;1736;52.068;6.968;2022-12-07T12:35:31;100997.28;;;5.48;99.52
3444;BME280;1736;52.068;6.968;2022-12-07T12:38:24;100995.28;;;5.53;99.33
3444;BME280;1736;52.068;6.968;2022-12-07T12:40:53;100997.44;;;5.61;97.56
3444;BME280;1736;52.068;6.968;2022-12-07T12:43:51;100991.63;;;5.70;97.88
3444;BME280;1736;52.068;6.968;2022-12-07T12:46:49;100980.94;;;5.73;98.14
3444;BME280;1736;52.068;6.968;2022-12-07T12:49:36;100981.78;;;5.74;97.03
3444;BME280;1736;52.068;6.968;2022-12-07T12:55:16;100976.00;;;5.67;96.67
3444;BME280;1736;52.068;6.968;2022-12-07T12:57:48;100963.63;;;5.69;95.39
3444;BME280;1736;52.068;6.968;2022-12-07T13:00:36;100966.66;;;5.77;94.99
3444;BME280;1736;52.068;6.968;2022-12-07T13:03:03;100969.41;;;5.90;94.03
3444;BME280;1736;52.068;6.968;2022-12-07T13:05:31;100968.97;;;5.97;92.72
3444;BME280;1736;52.068;6.968;2022-12-07T13:07:59;100967.63;;;5.90;91.60
3444;BME280;1736;52.068;6.968;2022-12-07T13:10:35;100962.47;;;5.89;90.32
3444;BME280;1736;52.068;6.968;2022-12-07T13:13:08;100953.16;;;5.97;91.75
3444;BME280;1736;52.068;6.968;2022-12-07T13:15:53;100962.00;;;6.10;92.10
3444;BME280;1736;52.068;6.968;2022-12-07T13:18:24;100953.63;;;6.18;92.51
3444;BME280;1736;52.068;6.968;2022-12-07T13:20:54;100954.38;;;6.06;92.11
3444;BME280;1736;52.068;6.968;2022-12-07T13:23:24;100946.00;;;5.99;92.95
3444;BME280;1736;52.068;6.968;2022-12-07T13:25:54;100952.78;;;6.03;92.36
3444;BME280;1736;52.068;6.968;2022-12-07T13:28:22;100947.25;;;6.08;91.70
3444;BME280;1736;52.068;6.968;2022-12-07T13:31:04;100943.88;;;6.20;90.82
3444;BME280;1736;52.068;6.968;2022-12-07T13:33:36;100932.84;;;5.99;91.01
3444;BME280;1736;52.068;6.968;2022-12-07T13:36:03;100937.53;;;5.94;91.11
3444;BME280;1736;52.068;6.968;2022-12-07T13:38:32;100937.91;;;6.02;90.62
3444;BME280;1736;52.068;6.968;2022-12-07T13:41:03;100926.34;;;5.91;91.31